createdAt,value
2019-01-26T00:01:10.296Z,75.33
2019-01-26T00:03:39.536Z,79.47
2019-01-26T00:06:08.768Z,70.17
2019-01-26T00:08:37.973Z,79.60
2019-01-26T00:11:07.302Z,53.73
2019-01-26T00:13:36.535Z,82.17
2019-01-26T00:16:05.757Z,97.47
2019-01-26T00:18:34.981Z,90.93
2019-01-26T00:21:04.188Z,82.17
2019-01-26T00:23:33.508Z,82.17
2019-01-26T00:26:02.740Z,91.20
2019-01-26T00:28:31.957Z,97.30
2019-01-26T00:31:01.152Z,100.77
2019-01-26T00:33:30.397Z,82.43
2019-01-26T00:35:59.617Z,107.67
2019-01-26T00:38:28.848Z,105.00
2019-01-26T00:40:58.068Z,101.23
2019-01-26T00:43:27.285Z,88.93
2019-01-26T00:45:56.517Z,126.47
2019-01-26T00:48:25.748Z,133.50
2019-01-26T00:50:54.956Z,139.57
2019-01-26T00:53:24.231Z,110.03
2019-01-26T00:55:53.452Z,180.23
2019-01-26T00:58:23.885Z,164.53
2019-01-26T01:00:53.157Z,177.43
2019-01-26T01:03:22.400Z,171.33
2019-01-26T01:05:51.589Z,183.70
2019-01-26T01:08:20.900Z,171.73
2019-01-26T01:10:50.108Z,184.57
2019-01-26T01:13:19.436Z,189.50
2019-01-26T01:15:48.636Z,198.73
2019-01-26T01:18:17.880Z,195.40
2019-01-26T01:20:47.097Z,209.07
2019-01-26T01:23:16.317Z,150.70
2019-01-26T01:25:45.537Z,172.60
2019-01-26T01:28:14.792Z,192.13
2019-01-26T01:30:43.979Z,183.97
2019-01-26T01:33:13.273Z,175.83
2019-01-26T01:35:42.431Z,171.40
2019-01-26T01:38:11.760Z,201.50
2019-01-26T01:40:41.053Z,177.30
2019-01-26T01:43:10.265Z,181.00
2019-01-26T01:45:39.469Z,183.27
2019-01-26T01:48:08.793Z,177.73
2019-01-26T01:50:38.012Z,165.87
2019-01-26T01:53:07.224Z,140.37
2019-01-26T01:55:36.447Z,162.27
2019-01-26T01:58:05.792Z,156.03
2019-01-26T02:00:35.129Z,131.07
2019-01-26T02:03:04.371Z,151.50
2019-01-26T02:05:33.588Z,158.37
2019-01-26T02:08:02.788Z,165.10
2019-01-26T02:10:32.625Z,154.03
2019-01-26T02:13:01.828Z,140.43
2019-01-26T02:15:31.050Z,122.93
2019-01-26T02:18:00.264Z,131.60
2019-01-26T02:20:29.507Z,120.37
2019-01-26T02:22:58.831Z,103.67
2019-01-26T02:25:28.101Z,93.40
2019-01-26T02:27:57.316Z,96.73
2019-01-26T02:30:26.532Z,100.30
2019-01-26T02:32:55.793Z,101.47
2019-01-26T02:35:25.033Z,97.47
2019-01-26T02:37:54.224Z,105.97
2019-01-26T02:40:23.476Z,116.50
2019-01-26T02:42:52.682Z,123.90
2019-01-26T02:45:21.919Z,110.87
2019-01-26T02:47:51.132Z,117.80
2019-01-26T02:50:20.376Z,82.57
2019-01-26T02:52:49.587Z,114.47
2019-01-26T02:55:18.801Z,111.37
2019-01-26T02:57:48.089Z,114.43
2019-01-26T03:00:22.412Z,103.37
2019-01-26T03:02:51.748Z,108.37
2019-01-26T03:05:21.019Z,103.67
2019-01-26T03:07:50.222Z,100.87
2019-01-26T03:10:21.498Z,95.30
2019-01-26T03:12:50.736Z,90.67
2019-01-26T03:15:21.339Z,78.17
2019-01-26T03:17:50.681Z,76.37
2019-01-26T03:20:20.334Z,79.60
2019-01-26T03:22:49.556Z,80.20
2019-01-26T03:25:18.762Z,77.63
2019-01-26T03:27:47.986Z,62.87
2019-01-26T03:30:22.241Z,62.07
2019-01-26T03:32:51.451Z,72.10
2019-01-26T03:35:20.635Z,58.23
2019-01-26T03:37:49.867Z,56.63
2019-01-26T03:40:20.619Z,75.27
2019-01-26T03:42:49.836Z,72.17
2019-01-26T03:45:19.121Z,75.47
2019-01-26T03:47:48.374Z,79.53
2019-01-26T03:50:17.667Z,72.70
2019-01-26T03:52:46.918Z,63.83
2019-01-26T03:55:17.740Z,62.80
2019-01-26T03:57:47.060Z,57.00
2019-01-26T04:00:18.812Z,59.67
2019-01-26T04:02:48.015Z,58.30
2019-01-26T04:05:17.368Z,48.07
2019-01-26T04:07:46.850Z,51.30
2019-01-26T04:10:16.163Z,59.97
2019-01-26T04:12:45.421Z,53.30
2019-01-26T04:15:15.399Z,49.40
2019-01-26T04:17:44.640Z,53.80
2019-01-26T04:20:16.411Z,61.53
2019-01-26T04:22:45.727Z,50.23
2019-01-26T04:25:14.935Z,52.10
2019-01-26T04:27:44.168Z,51.70
2019-01-26T04:30:16.290Z,47.33
2019-01-26T04:32:45.441Z,45.60
2019-01-26T04:35:15.084Z,46.63
2019-01-26T04:37:44.345Z,40.50
2019-01-26T04:40:15.484Z,48.83
2019-01-26T04:42:44.705Z,49.97
2019-01-26T04:45:16.327Z,41.43
2019-01-26T04:47:45.539Z,42.17
2019-01-26T04:50:16.384Z,42.37
2019-01-26T04:52:45.685Z,32.50
2019-01-26T04:55:15.863Z,31.60
2019-01-26T04:57:45.103Z,40.53
2019-01-26T05:00:23.175Z,32.13
2019-01-26T05:02:52.548Z,33.07
2019-01-26T05:05:21.951Z,32.13
2019-01-26T05:07:51.162Z,30.27
2019-01-26T05:10:20.409Z,32.97
2019-01-26T05:12:49.666Z,31.27
2019-01-26T05:15:19.653Z,35.83
2019-01-26T05:17:48.855Z,30.03
2019-01-26T05:20:20.523Z,27.93
2019-01-26T05:22:49.752Z,31.10
2019-01-26T05:25:18.950Z,24.30
2019-01-26T05:27:48.176Z,30.70
2019-01-26T05:30:20.259Z,30.93
2019-01-26T05:32:49.481Z,29.33
2019-01-26T05:35:18.672Z,38.10
2019-01-26T05:37:47.888Z,34.40
2019-01-26T05:40:17.604Z,29.90
2019-01-26T05:42:46.841Z,38.40
2019-01-26T05:45:18.691Z,30.47
2019-01-26T05:47:49.620Z,38.37
2019-01-26T05:50:20.607Z,40.43
2019-01-26T05:52:50.006Z,30.77
2019-01-26T05:55:19.205Z,37.93
2019-01-26T05:57:48.452Z,36.67
2019-01-26T06:00:23.308Z,32.93
2019-01-26T06:02:52.534Z,38.47
2019-01-26T06:05:21.758Z,36.03
2019-01-26T06:07:50.971Z,38.90
2019-01-26T06:10:20.184Z,38.60
2019-01-26T06:12:49.377Z,41.87
2019-01-26T06:15:18.590Z,44.53
2019-01-26T06:17:54.783Z,45.57
2019-01-26T06:20:18.647Z,45.67
2019-01-26T06:22:47.880Z,41.67
2019-01-26T06:25:17.572Z,42.37
2019-01-26T06:27:46.796Z,42.17
2019-01-26T06:30:18.647Z,37.07
2019-01-26T06:32:47.879Z,42.33
2019-01-26T06:35:17.089Z,32.37
2019-01-26T06:37:46.430Z,38.10
2019-01-26T06:40:16.670Z,38.07
2019-01-26T06:42:45.851Z,33.30
2019-01-26T06:45:16.865Z,44.03
2019-01-26T06:47:46.080Z,34.77
2019-01-26T06:50:20.051Z,36.10
2019-01-26T06:52:49.286Z,29.83
2019-01-26T06:55:18.504Z,36.23
2019-01-26T06:57:47.927Z,34.93
2019-01-26T07:00:19.548Z,39.97
2019-01-26T07:02:48.761Z,49.27
2019-01-26T07:05:36.993Z,51.83
2019-01-26T07:08:06.479Z,48.30
2019-01-26T07:10:35.687Z,41.83
2019-01-26T07:13:05.092Z,41.50
2019-01-26T07:15:34.377Z,49.70
2019-01-26T07:18:09.385Z,43.90
2019-01-26T07:20:34.508Z,45.17
2019-01-26T07:23:04.508Z,50.33
2019-01-26T07:25:33.709Z,47.37
2019-01-26T07:28:02.920Z,39.10
2019-01-26T07:30:32.132Z,44.67
2019-01-26T07:33:01.377Z,44.40
2019-01-26T07:35:30.584Z,49.27
2019-01-26T07:37:59.815Z,44.10
2019-01-26T07:40:29.113Z,43.57
2019-01-26T07:42:58.340Z,40.50
2019-01-26T07:45:28.377Z,38.37
2019-01-26T07:47:57.613Z,41.87
2019-01-26T07:50:27.022Z,40.20
2019-01-26T07:52:56.248Z,42.33
2019-01-26T07:55:25.435Z,48.27
2019-01-26T07:57:54.692Z,38.73
2019-01-26T08:00:25.416Z,38.90
2019-01-26T08:02:54.644Z,41.27
2019-01-26T08:05:23.947Z,39.93
2019-01-26T08:07:53.235Z,47.43
2019-01-26T08:10:23.487Z,44.83
2019-01-26T08:12:53.217Z,52.40
2019-01-26T08:15:27.974Z,50.83
2019-01-26T08:17:57.183Z,45.47
2019-01-26T08:20:26.364Z,49.33
2019-01-26T08:22:56.451Z,45.47
2019-01-26T08:25:25.708Z,51.80
2019-01-26T08:27:54.919Z,48.97
2019-01-26T08:30:24.323Z,44.43
2019-01-26T08:32:53.857Z,45.43
2019-01-26T08:35:23.051Z,44.77
2019-01-26T08:37:52.416Z,49.40
2019-01-26T08:40:21.916Z,46.77
2019-01-26T08:42:51.122Z,44.50
2019-01-26T08:45:20.416Z,45.07
2019-01-26T08:47:50.044Z,45.80
2019-01-26T08:50:21.516Z,43.70
2019-01-26T08:52:50.738Z,39.80
2019-01-26T08:55:19.928Z,46.40
2019-01-26T08:57:49.252Z,42.33
2019-01-26T09:00:20.411Z,37.87
2019-01-26T09:03:08.875Z,39.67
2019-01-26T09:05:57.956Z,35.63
2019-01-26T09:08:27.328Z,32.17
2019-01-26T09:10:56.548Z,41.40
2019-01-26T09:13:25.741Z,41.03
2019-01-26T09:15:55.048Z,38.87
2019-01-26T09:18:24.264Z,35.27
2019-01-26T09:20:53.483Z,34.00
2019-01-26T09:23:22.687Z,35.27
2019-01-26T09:25:51.908Z,36.83
2019-01-26T09:28:21.206Z,31.70
2019-01-26T09:30:50.608Z,39.03
2019-01-26T09:33:19.817Z,36.33
2019-01-26T09:35:49.019Z,34.00
2019-01-26T09:38:18.311Z,33.90
2019-01-26T09:40:47.508Z,33.17
2019-01-26T09:43:16.696Z,30.67
2019-01-26T09:45:45.922Z,30.87
2019-01-26T09:48:15.125Z,27.73
2019-01-26T09:50:44.324Z,23.93
2019-01-26T09:53:13.548Z,22.33
2019-01-26T09:55:42.774Z,25.53
2019-01-26T09:58:12.003Z,22.20
2019-01-26T10:00:41.200Z,20.27
2019-01-26T10:03:10.413Z,19.63
2019-01-26T10:05:39.605Z,23.23
2019-01-26T10:08:08.813Z,23.73
2019-01-26T10:10:38.044Z,27.90
2019-01-26T10:13:07.761Z,27.93
2019-01-26T10:15:37.017Z,25.43
2019-01-26T10:18:06.269Z,20.13
2019-01-26T10:20:36.905Z,23.93
2019-01-26T10:23:06.225Z,20.53
2019-01-26T10:25:35.449Z,17.80
2019-01-26T10:28:05.124Z,18.30
2019-01-26T10:30:48.777Z,21.40
2019-01-26T10:33:17.979Z,18.23
2019-01-26T10:36:06.517Z,21.67
2019-01-26T10:38:38.170Z,18.70
2019-01-26T10:41:26.548Z,17.90
2019-01-26T10:43:55.972Z,24.50
2019-01-26T10:46:25.247Z,20.50
2019-01-26T10:49:00.447Z,21.60
2019-01-26T10:51:25.336Z,16.87
2019-01-26T10:53:54.537Z,13.47
2019-01-26T10:56:23.765Z,20.97
2019-01-26T10:58:52.999Z,20.07
2019-01-26T11:01:22.197Z,15.80
2019-01-26T11:03:51.412Z,17.03
2019-01-26T11:06:20.711Z,17.73
2019-01-26T11:08:50.020Z,28.57
2019-01-26T11:11:19.227Z,21.67
2019-01-26T11:13:48.490Z,20.57
2019-01-26T11:16:17.673Z,16.70
2019-01-26T11:18:46.882Z,16.20
2019-01-26T11:21:16.067Z,18.27
2019-01-26T11:23:45.292Z,17.60
2019-01-26T11:26:14.488Z,13.87
2019-01-26T11:28:43.700Z,17.27
2019-01-26T11:31:13.872Z,16.60
2019-01-26T11:33:43.093Z,14.43
2019-01-26T11:36:12.392Z,15.57
2019-01-26T11:38:42.219Z,15.03
2019-01-26T11:41:11.417Z,13.47
2019-01-26T11:43:40.620Z,10.40
2019-01-26T11:46:35.048Z,15.40
2019-01-26T11:49:04.548Z,10.03
2019-01-26T11:51:58.615Z,13.77
2019-01-26T11:54:27.807Z,16.33
2019-01-26T11:57:06.433Z,12.50
2019-01-26T11:59:35.619Z,10.93
2019-01-26T12:02:30.022Z,12.97
2019-01-26T12:05:05.588Z,9.20
2019-01-26T12:07:36.259Z,11.27
2019-01-26T12:10:07.832Z,8.30
2019-01-26T12:12:37.027Z,11.97
2019-01-26T12:15:09.319Z,10.37
2019-01-26T12:17:38.608Z,6.47
2019-01-26T12:20:11.013Z,9.70
2019-01-26T12:22:40.240Z,15.07
2019-01-26T12:25:10.009Z,8.27
2019-01-26T12:27:39.251Z,10.83
2019-01-26T12:30:09.997Z,13.47
2019-01-26T12:32:39.204Z,9.03
2019-01-26T12:35:10.695Z,8.97
2019-01-26T12:37:39.980Z,9.63
2019-01-26T12:40:09.728Z,10.43
2019-01-26T12:42:39.028Z,14.20
2019-01-26T12:45:11.842Z,11.33
2019-01-26T12:47:41.108Z,10.00
2019-01-26T12:50:10.560Z,9.33
2019-01-26T12:52:39.779Z,7.30
2019-01-26T12:55:10.728Z,10.60
2019-01-26T12:57:39.973Z,10.23
2019-01-26T13:00:12.836Z,11.17
2019-01-26T13:02:42.051Z,8.60
2019-01-26T13:05:11.259Z,10.37
2019-01-26T13:07:40.462Z,14.10
2019-01-26T13:10:15.126Z,10.07
2019-01-26T13:12:44.512Z,8.23
2019-01-26T13:15:15.355Z,7.93
2019-01-26T13:17:44.796Z,9.57
2019-01-26T13:20:14.839Z,6.17
2019-01-26T13:22:44.099Z,9.37
2019-01-26T13:25:14.811Z,8.00
2019-01-26T13:27:44.111Z,37.90
2019-01-26T13:30:16.140Z,16.33
2019-01-26T13:32:46.622Z,11.77
2019-01-26T13:35:16.262Z,9.83
2019-01-26T13:37:45.473Z,9.27
2019-01-26T13:40:17.088Z,10.07
2019-01-26T13:42:46.255Z,8.10
2019-01-26T13:45:15.855Z,9.00
2019-01-26T13:47:45.067Z,7.87
2019-01-26T13:50:14.337Z,9.10
2019-01-26T13:52:43.564Z,8.97
2019-01-26T13:55:17.421Z,8.07
2019-01-26T13:57:47.028Z,9.70
2019-01-26T14:00:24.653Z,9.10
2019-01-26T14:02:54.072Z,8.73
2019-01-26T14:05:23.260Z,9.40
2019-01-26T14:07:52.480Z,12.33
2019-01-26T14:10:21.787Z,8.60
2019-01-26T14:12:50.995Z,7.27
2019-01-26T14:15:20.537Z,9.00
2019-01-26T14:17:49.819Z,6.50
2019-01-26T14:20:20.603Z,6.20
2019-01-26T14:22:49.812Z,11.77
2019-01-26T14:25:19.050Z,15.90
2019-01-26T14:27:48.285Z,17.03
2019-01-26T14:30:23.500Z,13.40
2019-01-26T14:32:52.878Z,11.70
2019-01-26T14:35:22.224Z,16.73
2019-01-26T14:37:51.447Z,14.73
2019-01-26T14:40:20.664Z,9.97
2019-01-26T14:42:54.182Z,7.50
2019-01-26T14:45:20.712Z,6.63
2019-01-26T14:47:49.987Z,7.90
2019-01-26T14:50:19.241Z,7.10
2019-01-26T14:52:48.665Z,8.07
2019-01-26T14:55:19.871Z,6.47
2019-01-26T14:57:49.228Z,7.50
2019-01-26T15:00:24.396Z,9.03
2019-01-26T15:02:53.616Z,16.40
2019-01-26T15:05:22.790Z,10.67
2019-01-26T15:07:51.991Z,12.07
2019-01-26T15:10:21.340Z,8.77
2019-01-26T15:12:50.633Z,9.20
2019-01-26T15:15:20.181Z,8.10
2019-01-26T15:17:49.387Z,7.87
2019-01-26T15:20:21.331Z,8.80
2019-01-26T15:22:50.536Z,8.07
2019-01-26T15:25:19.728Z,6.60
2019-01-26T15:27:48.936Z,8.37
2019-01-26T15:30:20.649Z,8.30
2019-01-26T15:32:49.824Z,6.73
2019-01-26T15:35:19.049Z,7.43
2019-01-26T15:37:48.236Z,9.67
2019-01-26T15:40:17.477Z,11.13
2019-01-26T15:42:46.657Z,10.83
2019-01-26T15:45:18.779Z,11.93
2019-01-26T15:47:48.312Z,9.60
2019-01-26T15:50:17.584Z,12.53
2019-01-26T15:52:46.788Z,14.37
2019-01-26T15:55:17.995Z,12.43
2019-01-26T15:57:47.283Z,13.33
2019-01-26T16:00:19.088Z,11.73
2019-01-26T16:02:48.328Z,14.90
2019-01-26T16:05:17.640Z,14.80
2019-01-26T16:07:46.871Z,15.17
2019-01-26T16:10:18.263Z,13.70
2019-01-26T16:12:47.448Z,12.47
2019-01-26T16:15:18.885Z,13.83
2019-01-26T16:17:48.048Z,13.77
2019-01-26T16:20:20.418Z,13.73
2019-01-26T16:22:48.755Z,17.93
2019-01-26T16:25:18.296Z,17.13
2019-01-26T16:27:47.464Z,18.03
2019-01-26T16:30:19.275Z,20.37
2019-01-26T16:32:48.707Z,20.50
2019-01-26T16:35:17.983Z,14.07
2019-01-26T16:37:47.155Z,16.40
2019-01-26T16:40:19.163Z,16.10
2019-01-26T16:42:48.392Z,15.87
2019-01-26T16:45:20.126Z,13.33
2019-01-26T16:47:49.401Z,16.13
2019-01-26T16:50:27.296Z,20.10
2019-01-26T16:52:51.866Z,17.87
2019-01-26T16:55:21.376Z,18.13
2019-01-26T16:57:50.620Z,19.47
2019-01-26T17:00:41.072Z,18.00
2019-01-26T17:03:10.392Z,18.50
2019-01-26T17:05:39.671Z,18.87
2019-01-26T17:08:09.695Z,15.93
2019-01-26T17:10:39.235Z,18.73
2019-01-26T17:13:08.602Z,18.97
2019-01-26T17:15:37.801Z,20.93
2019-01-26T17:18:13.737Z,17.27
2019-01-26T17:20:40.043Z,16.63
2019-01-26T17:23:09.223Z,16.67
2019-01-26T17:25:38.483Z,17.57
2019-01-26T17:28:07.705Z,17.37
2019-01-26T17:30:38.843Z,16.53
2019-01-26T17:33:09.137Z,21.47
2019-01-26T17:35:38.438Z,22.07
2019-01-26T17:38:08.402Z,25.37
2019-01-26T17:40:37.625Z,25.97
2019-01-26T17:43:07.196Z,24.87
2019-01-26T17:45:36.427Z,26.90
2019-01-26T17:48:07.008Z,29.13
2019-01-26T17:50:42.032Z,33.47
2019-01-26T17:53:07.236Z,29.37
2019-01-26T17:55:36.632Z,30.90
2019-01-26T17:58:06.048Z,26.67
2019-01-26T18:01:01.916Z,30.13
2019-01-26T18:03:31.216Z,31.90
2019-01-26T18:06:00.420Z,26.73
2019-01-26T18:08:29.642Z,33.13
2019-01-26T18:10:58.835Z,32.63
2019-01-26T18:13:28.039Z,30.03
2019-01-26T18:15:57.271Z,31.30
2019-01-26T18:18:26.465Z,35.97
2019-01-26T18:20:55.668Z,35.90
2019-01-26T18:23:29.713Z,40.57
2019-01-26T18:25:58.855Z,50.13
2019-01-26T18:28:28.064Z,50.93
2019-01-26T18:30:57.280Z,58.03
2019-01-26T18:33:26.530Z,54.43
2019-01-26T18:35:55.714Z,55.40
2019-01-26T18:38:24.936Z,56.17
2019-01-26T18:40:54.136Z,50.37
2019-01-26T18:43:23.438Z,39.73
2019-01-26T18:45:52.669Z,45.83
2019-01-26T18:48:21.872Z,43.47
2019-01-26T18:50:56.170Z,43.17
2019-01-26T18:53:22.551Z,44.57
2019-01-26T18:55:51.805Z,42.97
2019-01-26T18:58:21.004Z,49.63
2019-01-26T19:00:51.316Z,43.97
2019-01-26T19:03:50.944Z,35.07
2019-01-26T19:06:20.717Z,42.13
2019-01-26T19:08:49.924Z,44.63
2019-01-26T19:11:19.123Z,43.97
2019-01-26T19:13:48.341Z,35.80
2019-01-26T19:16:17.541Z,35.57
2019-01-26T19:18:46.821Z,36.93
2019-01-26T19:21:16.124Z,45.07
2019-01-26T19:23:45.364Z,45.20
2019-01-26T19:26:14.648Z,44.20
2019-01-26T19:28:43.925Z,60.93
2019-01-26T19:31:13.155Z,54.67
2019-01-26T19:33:42.373Z,49.20
2019-01-26T19:36:11.625Z,51.70
2019-01-26T19:38:40.900Z,50.83
2019-01-26T19:41:10.116Z,61.57
2019-01-26T19:43:39.328Z,49.23
2019-01-26T19:46:08.528Z,57.43
2019-01-26T19:48:37.764Z,50.50
2019-01-26T19:51:10.042Z,58.93
2019-01-26T19:53:37.867Z,59.40
2019-01-26T19:56:07.078Z,59.87
2019-01-26T19:58:36.975Z,51.63
2019-01-26T20:01:06.168Z,49.20
2019-01-26T20:03:35.380Z,48.07
2019-01-26T20:06:04.872Z,55.03
2019-01-26T20:08:34.089Z,56.23
2019-01-26T20:11:03.284Z,46.70
2019-01-26T20:13:32.585Z,53.97
2019-01-26T20:16:01.799Z,54.87
2019-01-26T20:18:31.030Z,62.50
2019-01-26T20:21:00.308Z,63.20
2019-01-26T20:23:29.603Z,59.07
2019-01-26T20:25:58.808Z,62.40
2019-01-26T20:28:28.151Z,60.90
2019-01-26T20:30:57.363Z,54.33
2019-01-26T20:33:26.595Z,58.00
2019-01-26T20:35:55.812Z,72.33
2019-01-26T20:38:25.064Z,64.13
2019-01-26T20:40:54.269Z,63.87
2019-01-26T20:43:23.530Z,71.93
2019-01-26T20:45:52.740Z,65.50
2019-01-26T20:48:21.996Z,67.90
2019-01-26T20:50:51.244Z,55.70
2019-01-26T20:53:20.596Z,64.70
2019-01-26T20:55:49.855Z,59.10
2019-01-26T20:58:19.057Z,61.73
2019-01-26T21:00:48.317Z,64.47
2019-01-26T21:03:17.615Z,62.50
2019-01-26T21:05:46.888Z,64.43
2019-01-26T21:08:16.138Z,58.43
2019-01-26T21:10:45.452Z,65.30
2019-01-26T21:13:16.398Z,64.67
2019-01-26T21:15:45.540Z,73.47
2019-01-26T21:18:14.752Z,73.87
2019-01-26T21:20:44.067Z,61.77
2019-01-26T21:23:13.276Z,67.97
2019-01-26T21:25:42.569Z,76.40
2019-01-26T21:28:11.810Z,77.97
2019-01-26T21:30:41.187Z,77.90
2019-01-26T21:33:10.400Z,65.00
2019-01-26T21:35:39.636Z,74.47
2019-01-26T21:38:08.911Z,73.07
2019-01-26T21:40:38.124Z,74.77
2019-01-26T21:43:07.328Z,70.00
2019-01-26T21:45:36.626Z,63.83
2019-01-26T21:48:05.828Z,68.33
2019-01-26T21:50:35.051Z,71.80
2019-01-26T21:53:04.498Z,74.07
2019-01-26T21:55:33.696Z,78.83
2019-01-26T21:58:02.939Z,79.13
2019-01-26T22:00:33.491Z,82.17
2019-01-26T22:03:03.379Z,88.20
2019-01-26T22:05:32.579Z,79.00
2019-01-26T22:08:01.901Z,80.13
2019-01-26T22:10:31.088Z,100.30
2019-01-26T22:13:00.353Z,86.87
2019-01-26T22:15:29.555Z,91.63
2019-01-26T22:17:58.897Z,98.27
2019-01-26T22:20:28.837Z,91.53
2019-01-26T22:22:58.295Z,89.73
2019-01-26T22:25:27.693Z,82.20
2019-01-26T22:27:57.813Z,89.00
2019-01-26T22:30:34.276Z,92.83
2019-01-26T22:33:03.618Z,88.93
2019-01-26T22:35:32.787Z,96.43
2019-01-26T22:38:02.011Z,84.87
2019-01-26T22:40:33.473Z,84.00
2019-01-26T22:43:02.675Z,91.23
2019-01-26T22:45:31.981Z,80.00
2019-01-26T22:48:01.256Z,82.43
2019-01-26T22:50:31.128Z,84.73
2019-01-26T22:53:00.548Z,83.07
2019-01-26T22:55:30.622Z,86.67
2019-01-26T22:58:00.071Z,83.57
2019-01-26T23:01:14.120Z,102.13
2019-01-26T23:04:27.208Z,92.57
2019-01-26T23:07:23.258Z,101.63
2019-01-26T23:10:04.248Z,102.43
2019-01-26T23:12:49.861Z,95.70
2019-01-26T23:16:14.505Z,91.40
2019-01-26T23:19:18.263Z,88.47
2019-01-26T23:22:34.185Z,111.03
2019-01-26T23:25:33.007Z,97.33
2019-01-26T23:28:17.351Z,106.27
2019-01-26T23:31:17.408Z,104.73
2019-01-26T23:33:48.397Z,103.17
2019-01-26T23:36:17.879Z,102.37
2019-01-26T23:38:47.496Z,101.17
2019-01-26T23:41:16.961Z,95.20
2019-01-26T23:43:46.147Z,104.57
2019-01-26T23:46:15.440Z,97.33
2019-01-26T23:48:44.779Z,91.20
2019-01-26T23:51:14.009Z,87.47
2019-01-26T23:53:43.348Z,81.97
2019-01-26T23:56:12.543Z,87.43
2019-01-26T23:58:41.846Z,78.10
